Time;durP1;ratioP1;P1;durP2;ratioP2;P2;SDS_P1;SDS_P2;PMS_P1;PMS_P2;Temp;Humidity;BMP_temperature;BMP_pressure;BME280_temperature;BME280_humidity;BME280_pressure;Samples;Min_cycle;Max_cycle;Signal;HPM_P1;HPM_P2
2023/09/29 00:00:56;;;;;;;30.85;9.20;;;14.80;81.40;;;;;;5089406;28;20039;-65
2023/09/29 00:03:22;;;;;;;32.08;13.00;;;14.80;81.40;;;;;;5089213;28;20047;-66
2023/09/29 00:05:49;;;;;;;24.50;8.75;;;14.80;81.40;;;;;;5079061;28;20055;-65
2023/09/29 00:08:17;;;;;;;32.10;10.10;;;14.80;81.30;;;;;;5074263;28;20508;-64
2023/09/29 00:10:45;;;;;;;29.48;10.32;;;14.80;81.30;;;;;;5082766;28;20054;-64
2023/09/29 00:13:11;;;;;;;36.10;14.57;;;14.80;81.30;;;;;;5077732;28;20056;-65
2023/09/29 00:15:38;;;;;;;26.52;9.10;;;14.90;81.20;;;;;;5068272;28;20051;-64
2023/09/29 00:18:07;;;;;;;32.67;11.40;;;14.90;81.20;;;;;;5068532;28;20044;-65
2023/09/29 00:20:34;;;;;;;27.55;7.75;;;14.90;81.20;;;;;;5067202;28;20378;-64
2023/09/29 00:23:01;;;;;;;27.77;8.90;;;14.90;81.00;;;;;;5068489;28;20070;-65
2023/09/29 00:25:27;;;;;;;21.75;6.82;;;15.00;80.90;;;;;;5067820;28;20110;-65
2023/09/29 00:27:53;;;;;;;33.85;7.70;;;15.00;80.70;;;;;;5068479;28;20110;-65
2023/09/29 00:30:20;;;;;;;35.78;8.32;;;15.00;80.50;;;;;;5069165;28;20467;-65
2023/09/29 00:32:54;;;;;;;30.00;8.95;;;15.00;80.50;;;;;;5072643;28;20408;-65
2023/09/29 00:35:24;;;;;;;23.52;8.68;;;15.10;80.30;;;;;;5088392;28;20044;-65
2023/09/29 00:37:58;;;;;;;30.33;7.97;;;15.20;80.20;;;;;;5083118;28;20396;-65
2023/09/29 00:40:24;;;;;;;27.80;8.25;;;15.20;80.00;;;;;;5071155;28;20075;-65
2023/09/29 00:42:49;;;;;;;24.05;10.20;;;15.20;79.90;;;;;;5088396;28;20126;-65
2023/09/29 00:45:19;;;;;;;27.40;9.45;;;15.20;79.80;;;;;;5088210;28;20123;-64
2023/09/29 00:47:46;;;;;;;27.75;9.70;;;15.30;79.70;;;;;;5068591;28;20417;-66
2023/09/29 00:50:14;;;;;;;28.33;8.73;;;15.30;79.50;;;;;;5068419;28;20044;-65
2023/09/29 00:52:42;;;;;;;28.95;11.35;;;15.30;79.40;;;;;;5067775;28;20393;-65
2023/09/29 00:55:11;;;;;;;26.48;8.82;;;15.30;79.40;;;;;;5068323;28;20579;-66
2023/09/29 00:57:39;;;;;;;25.67;9.02;;;15.30;79.20;;;;;;5068591;28;20045;-66
2023/09/29 01:00:32;;;;;;;30.27;9.73;;;15.30;79.30;;;;;;5067915;28;20055;-65
2023/09/29 01:03:03;;;;;;;27.88;8.45;;;15.30;79.20;;;;;;5066859;28;20052;-65
2023/09/29 01:05:32;;;;;;;29.58;14.32;;;15.30;79.10;;;;;;5075092;28;20759;-65
2023/09/29 01:07:58;;;;;;;19.98;8.30;;;15.30;79.20;;;;;;5073550;28;20036;-66
2023/09/29 01:10:24;;;;;;;22.38;9.07;;;15.30;79.10;;;;;;5073404;28;20051;-65
2023/09/29 01:12:50;;;;;;;23.67;6.50;;;15.20;79.10;;;;;;5074681;28;20121;-65
2023/09/29 01:15:17;;;;;;;21.88;7.63;;;15.20;79.10;;;;;;5067803;28;20059;-65
2023/09/29 01:17:43;;;;;;;28.10;8.73;;;15.30;79.10;;;;;;5067771;28;20119;-65
2023/09/29 01:20:20;;;;;;;20.25;6.57;;;15.20;79.10;;;;;;5068108;28;20044;-66
2023/09/29 01:22:47;;;;;;;28.02;7.22;;;15.20;79.10;;;;;;5070367;28;20504;-65
2023/09/29 01:25:20;;;;;;;25.38;7.25;;;15.20;79.10;;;;;;5087919;28;20050;-64
2023/09/29 01:27:46;;;;;;;27.50;6.72;;;15.20;79.00;;;;;;5088495;28;20047;-66
2023/09/29 01:30:18;;;;;;;28.13;7.40;;;15.20;79.00;;;;;;5088622;28;20044;-66
2023/09/29 01:32:46;;;;;;;24.73;7.22;;;15.20;79.00;;;;;;5072842;28;20424;-65
2023/09/29 01:35:18;;;;;;;28.75;7.32;;;15.20;79.00;;;;;;5076942;28;20239;-66
2023/09/29 01:37:48;;;;;;;22.52;7.18;;;15.20;79.10;;;;;;5067061;28;20520;-66
2023/09/29 01:40:15;;;;;;;26.27;7.13;;;15.20;79.10;;;;;;5070421;28;20084;-65
2023/09/29 01:42:42;;;;;;;21.80;5.85;;;15.10;79.10;;;;;;5087433;28;20044;-65
2023/09/29 01:45:10;;;;;;;26.08;7.45;;;15.10;79.30;;;;;;5087699;28;20079;-65
2023/09/29 01:47:38;;;;;;;25.45;6.72;;;15.10;79.30;;;;;;5068628;28;20139;-66
2023/09/29 01:50:07;;;;;;;24.63;6.45;;;15.10;79.40;;;;;;5067526;28;20048;-65
2023/09/29 01:52:33;;;;;;;23.33;6.85;;;15.10;79.50;;;;;;5067882;28;20420;-65
2023/09/29 01:55:00;;;;;;;23.33;6.68;;;15.10;79.60;;;;;;5082088;28;20060;-65
2023/09/29 01:57:26;;;;;;;24.75;7.05;;;15.00;79.70;;;;;;5086570;28;20519;-66
2023/09/29 01:59:52;;;;;;;19.90;6.55;;;15.00;79.80;;;;;;5086927;28;20044;-66
2023/09/29 02:02:17;;;;;;;23.42;6.18;;;15.00;79.80;;;;;;5079302;28;20515;-65
2023/09/29 02:04:43;;;;;;;22.38;6.80;;;15.00;80.00;;;;;;5074054;28;20044;-65
2023/09/29 02:07:09;;;;;;;23.90;6.43;;;15.00;80.00;;;;;;5075771;28;20105;-66
2023/09/29 02:09:34;;;;;;;22.65;6.50;;;15.00;80.00;;;;;;5073131;28;20071;-65
2023/09/29 02:12:01;;;;;;;30.02;7.50;;;15.00;80.00;;;;;;5075404;28;20087;-66
2023/09/29 02:14:28;;;;;;;24.50;6.80;;;15.00;80.10;;;;;;5071036;28;20048;-66
2023/09/29 02:16:53;;;;;;;25.75;6.63;;;15.00;80.00;;;;;;5071244;28;20052;-65
2023/09/29 02:19:20;;;;;;;25.05;6.45;;;15.10;80.10;;;;;;5069979;28;20062;-65
2023/09/29 02:21:46;;;;;;;24.08;6.63;;;15.10;80.10;;;;;;5070997;28;20147;-65
2023/09/29 02:24:12;;;;;;;26.67;6.68;;;15.10;80.10;;;;;;5073034;28;20135;-65
2023/09/29 02:26:38;;;;;;;23.77;6.30;;;15.10;80.20;;;;;;5081865;28;20095;-66
2023/09/29 02:29:04;;;;;;;24.00;6.97;;;15.10;80.20;;;;;;5070516;28;20048;-66
2023/09/29 02:31:31;;;;;;;25.42;7.07;;;15.10;80.20;;;;;;5071105;28;20075;-65
2023/09/29 02:33:57;;;;;;;22.98;6.65;;;15.10;80.30;;;;;;5084021;28;20083;-65
2023/09/29 02:36:23;;;;;;;20.23;6.50;;;15.10;80.30;;;;;;5091072;28;20149;-66
2023/09/29 02:38:49;;;;;;;24.00;7.07;;;15.10;80.30;;;;;;5090679;28;20131;-65
2023/09/29 02:41:15;;;;;;;19.95;6.35;;;15.10;80.40;;;;;;5072728;28;20040;-65
2023/09/29 02:43:40;;;;;;;22.15;6.55;;;15.00;80.40;;;;;;5089021;28;20052;-65
2023/09/29 02:46:14;;;;;;;19.58;7.07;;;15.00;80.40;;;;;;5082839;28;20051;-65
2023/09/29 02:48:41;;;;;;;24.75;6.95;;;15.00;80.30;;;;;;5069428;28;20139;-66
2023/09/29 02:51:17;;;;;;;19.05;6.55;;;15.00;80.40;;;;;;5080186;28;20086;-64
2023/09/29 02:53:43;;;;;;;25.45;6.55;;;15.00;80.50;;;;;;5089994;28;20075;-66
2023/09/29 02:56:10;;;;;;;25.80;6.57;;;15.00;80.50;;;;;;5089624;28;20079;-66
2023/09/29 02:58:36;;;;;;;20.25;6.45;;;15.00;80.40;;;;;;5070320;28;20544;-66
2023/09/29 03:01:02;;;;;;;20.30;6.32;;;15.00;80.40;;;;;;5086623;28;20127;-66
2023/09/29 03:03:27;;;;;;;20.83;6.45;;;15.00;80.30;;;;;;5092716;28;20129;-65
2023/09/29 03:05:53;;;;;;;24.70;7.13;;;15.00;80.30;;;;;;5090287;28;20520;-65
2023/09/29 03:08:19;;;;;;;23.73;6.93;;;15.00;80.30;;;;;;5088948;28;20558;-66
2023/09/29 03:10:44;;;;;;;23.25;7.35;;;15.00;80.30;;;;;;5072790;28;20504;-66
2023/09/29 03:13:11;;;;;;;20.85;6.47;;;15.00;80.20;;;;;;5080997;28;20040;-65
2023/09/29 03:15:36;;;;;;;22.70;6.45;;;15.00;80.20;;;;;;5090158;28;20488;-66
2023/09/29 03:18:05;;;;;;;21.60;6.75;;;15.00;80.10;;;;;;5090096;28;20104;-64
2023/09/29 03:20:32;;;;;;;21.67;6.35;;;15.00;80.10;;;;;;5089562;28;20407;-65
2023/09/29 03:23:04;;;;;;;23.65;6.93;;;15.00;80.10;;;;;;5089438;28;20080;-65
2023/09/29 03:25:29;;;;;;;23.88;6.88;;;15.00;80.00;;;;;;5090250;28;20575;-66
2023/09/29 03:27:55;;;;;;;23.65;6.43;;;15.00;80.00;;;;;;5075833;28;20040;-65
2023/09/29 03:30:21;;;;;;;20.90;6.50;;;15.00;79.80;;;;;;5089922;28;20048;-65
2023/09/29 03:32:47;;;;;;;21.40;6.72;;;15.00;80.00;;;;;;5089610;28;20043;-66
2023/09/29 03:35:13;;;;;;;24.00;6.88;;;15.00;79.90;;;;;;5078237;28;20044;-65
2023/09/29 03:37:39;;;;;;;21.05;5.60;;;15.00;79.90;;;;;;5069343;28;20451;-65
2023/09/29 03:40:09;;;;;;;19.80;6.38;;;15.10;79.90;;;;;;5080736;28;20493;-66
2023/09/29 03:42:36;;;;;;;25.13;6.80;;;15.10;79.90;;;;;;5088193;28;20527;-65
2023/09/29 03:45:05;;;;;;;20.10;5.72;;;15.10;79.80;;;;;;5088632;28;20036;-66
2023/09/29 03:47:33;;;;;;;21.23;5.85;;;15.20;79.70;;;;;;5070397;28;20056;-65
2023/09/29 03:50:00;;;;;;;24.45;5.65;;;15.20;79.70;;;;;;5083305;28;20048;-66
2023/09/29 03:52:26;;;;;;;20.55;5.45;;;15.20;79.70;;;;;;5088976;28;20086;-65
2023/09/29 03:54:51;;;;;;;20.50;5.78;;;15.20;79.60;;;;;;5088831;28;20079;-65
2023/09/29 03:57:17;;;;;;;16.20;5.53;;;15.30;79.70;;;;;;5077278;28;20036;-64
2023/09/29 03:59:43;;;;;;;18.27;5.78;;;15.30;79.70;;;;;;5089250;28;20047;-66
2023/09/29 04:02:08;;;;;;;21.63;6.30;;;15.30;79.70;;;;;;5089465;28;20051;-66
2023/09/29 04:04:34;;;;;;;23.10;6.68;;;15.30;79.70;;;;;;5088977;28;20127;-65
2023/09/29 04:07:00;;;;;;;19.20;6.05;;;15.40;79.70;;;;;;5089597;28;20119;-66
2023/09/29 04:09:26;;;;;;;23.67;6.55;;;15.40;79.70;;;;;;5082245;28;20040;-66
2023/09/29 04:11:51;;;;;;;24.85;6.25;;;15.40;79.70;;;;;;5073977;28;20405;-65
2023/09/29 04:14:17;;;;;;;21.75;5.88;;;15.50;79.70;;;;;;5089056;28;20050;-66
2023/09/29 04:16:42;;;;;;;20.90;5.80;;;15.50;79.80;;;;;;5089639;28;20507;-66
2023/09/29 04:19:11;;;;;;;22.98;5.80;;;15.50;79.80;;;;;;5080867;28;20551;-66
2023/09/29 04:21:37;;;;;;;22.85;5.78;;;15.60;79.70;;;;;;5087189;28;20074;-65
2023/09/29 04:24:03;;;;;;;19.95;5.40;;;15.60;79.70;;;;;;5088633;28;20055;-66
2023/09/29 04:26:28;;;;;;;15.95;5.43;;;15.60;79.70;;;;;;5089007;28;20047;-65
2023/09/29 04:28:54;;;;;;;18.52;5.55;;;15.60;79.60;;;;;;5088736;28;20044;-65
2023/09/29 04:31:20;;;;;;;21.27;5.70;;;15.70;79.60;;;;;;5088990;28;20048;-66
2023/09/29 04:33:45;;;;;;;21.65;6.18;;;15.80;79.50;;;;;;5088341;28;20619;-65
2023/09/29 04:36:11;;;;;;;18.58;5.78;;;15.80;79.50;;;;;;5087175;28;20508;-66
2023/09/29 04:38:37;;;;;;;21.33;5.90;;;15.80;79.50;;;;;;5088878;28;20504;-65
2023/09/29 04:41:04;;;;;;;20.70;6.03;;;15.90;79.40;;;;;;5088344;28;20117;-65
2023/09/29 04:43:30;;;;;;;19.27;5.40;;;16.00;79.30;;;;;;5089135;28;20473;-65
2023/09/29 04:45:56;;;;;;;23.20;5.43;;;16.00;79.10;;;;;;5081640;28;20110;-65
2023/09/29 04:48:22;;;;;;;16.85;5.28;;;16.00;79.20;;;;;;5067490;28;20464;-66
2023/09/29 04:50:49;;;;;;;22.10;6.00;;;16.10;79.10;;;;;;5081336;28;20559;-66
2023/09/29 04:53:14;;;;;;;17.90;5.72;;;16.10;79.30;;;;;;5079538;28;20115;-65
2023/09/29 04:55:40;;;;;;;17.88;5.43;;;16.10;79.40;;;;;;5088469;28;20043;-66
2023/09/29 04:58:06;;;;;;;15.95;5.80;;;16.10;79.40;;;;;;5088611;28;20048;-65
2023/09/29 05:00:31;;;;;;;18.00;5.60;;;16.00;79.60;;;;;;5088270;28;20048;-66
2023/09/29 05:02:57;;;;;;;18.30;5.78;;;16.00;79.70;;;;;;5073979;28;20040;-65
2023/09/29 05:05:22;;;;;;;17.73;6.03;;;16.00;79.60;;;;;;5068549;28;20394;-66
2023/09/29 05:07:48;;;;;;;16.80;5.82;;;16.00;79.60;;;;;;5081724;28;20036;-66
2023/09/29 05:10:14;;;;;;;16.15;5.18;;;16.00;79.70;;;;;;5081389;28;20100;-65
2023/09/29 05:12:43;;;;;;;18.55;5.32;;;16.00;79.60;;;;;;5081216;28;20409;-66
2023/09/29 05:15:09;;;;;;;21.95;5.80;;;16.00;79.60;;;;;;5067199;28;20520;-65
2023/09/29 05:17:35;;;;;;;22.38;6.40;;;16.00;79.70;;;;;;5082688;28;20044;-66
2023/09/29 05:20:02;;;;;;;18.52;6.10;;;16.00;79.70;;;;;;5088375;28;20048;-65
2023/09/29 05:22:28;;;;;;;17.95;5.57;;;16.00;79.60;;;;;;5086374;28;20162;-66
2023/09/29 05:24:53;;;;;;;19.10;5.80;;;16.00;79.60;;;;;;5075583;28;20123;-65
2023/09/29 05:27:20;;;;;;;20.45;5.57;;;16.00;79.70;;;;;;5087455;28;20040;-65
2023/09/29 05:29:46;;;;;;;18.10;5.80;;;16.00;79.70;;;;;;5088275;28;20052;-65
2023/09/29 05:32:11;;;;;;;17.17;6.00;;;16.00;79.90;;;;;;5088162;28;20043;-66
2023/09/29 05:34:37;;;;;;;23.10;6.47;;;16.00;79.90;;;;;;5087279;28;20136;-66
2023/09/29 05:37:03;;;;;;;18.70;6.18;;;16.00;80.10;;;;;;5088364;28;20485;-66
2023/09/29 05:39:28;;;;;;;19.67;6.35;;;16.00;80.20;;;;;;5081536;28;20133;-66
2023/09/29 05:41:54;;;;;;;22.98;6.90;;;16.00;80.40;;;;;;5084077;28;20052;-65
2023/09/29 05:44:20;;;;;;;15.13;5.78;;;16.00;80.40;;;;;;5087807;28;20044;-65
2023/09/29 05:46:45;;;;;;;31.10;11.95;;;16.00;80.40;;;;;;5073227;28;20052;-65
2023/09/29 05:49:11;;;;;;;26.60;9.07;;;16.00;80.70;;;;;;5078192;28;20058;-66
2023/09/29 05:51:37;;;;;;;20.23;6.05;;;15.90;80.70;;;;;;5098778;28;20044;-65
2023/09/29 05:54:03;;;;;;;25.10;10.00;;;15.90;80.70;;;;;;5091236;28;20535;-66
2023/09/29 05:56:31;;;;;;;20.30;7.18;;;15.90;80.60;;;;;;5078173;28;20063;-65
2023/09/29 05:58:57;;;;;;;36.80;14.50;;;16.00;80.70;;;;;;5071491;28;20424;-66
2023/09/29 06:01:25;;;;;;;32.33;11.85;;;15.90;80.70;;;;;;5085138;28;20044;-66
2023/09/29 06:03:51;;;;;;;28.20;9.73;;;16.00;80.60;;;;;;5071446;28;20509;-66
2023/09/29 06:06:18;;;;;;;56.83;26.38;;;16.00;80.70;;;;;;5071196;28;20047;-66
2023/09/29 06:08:44;;;;;;;58.60;26.48;;;16.00;80.60;;;;;;5078209;28;20056;-65
2023/09/29 06:11:11;;;;;;;52.90;24.58;;;16.00;80.70;;;;;;5071143;28;20051;-66
2023/09/29 06:13:38;;;;;;;57.08;26.98;;;16.00;80.80;;;;;;5085985;28;20044;-65
2023/09/29 06:16:04;;;;;;;18.00;8.10;;;16.00;80.90;;;;;;5091319;28;20075;-66
2023/09/29 06:18:30;;;;;;;23.63;8.70;;;16.00;80.90;;;;;;5091280;28;20452;-65
2023/09/29 06:20:55;;;;;;;17.70;7.82;;;16.00;80.90;;;;;;5091116;28;20131;-66
2023/09/29 06:23:21;;;;;;;24.00;10.07;;;16.00;81.00;;;;;;5091688;28;20062;-66
2023/09/29 06:25:47;;;;;;;14.93;6.13;;;16.00;81.10;;;;;;5091604;28;20040;-66
2023/09/29 06:28:13;;;;;;;18.33;7.30;;;16.00;81.20;;;;;;5091223;28;20044;-65
2023/09/29 06:30:38;;;;;;;20.75;7.10;;;16.00;81.20;;;;;;5091298;28;20492;-66
2023/09/29 06:33:06;;;;;;;23.33;8.25;;;16.00;81.20;;;;;;5089127;28;20047;-66
2023/09/29 06:35:31;;;;;;;20.10;7.80;;;16.00;81.30;;;;;;5077052;28;20412;-65
2023/09/29 06:37:57;;;;;;;20.58;7.53;;;16.00;81.30;;;;;;5075258;28;20055;-66
2023/09/29 06:40:23;;;;;;;20.30;7.35;;;16.00;81.40;;;;;;5089588;28;20510;-65
2023/09/29 06:42:49;;;;;;;18.15;7.07;;;16.00;81.40;;;;;;5083194;28;20055;-66
2023/09/29 06:45:15;;;;;;;20.38;7.32;;;16.00;81.50;;;;;;5073784;28;20044;-66
2023/09/29 06:47:40;;;;;;;19.00;6.75;;;16.00;81.50;;;;;;5091226;28;20054;-66
2023/09/29 06:50:10;;;;;;;18.92;6.93;;;16.00;81.60;;;;;;5077368;28;20045;-66
2023/09/29 06:52:37;;;;;;;18.77;6.97;;;16.00;81.70;;;;;;5090910;28;20045;-65
2023/09/29 06:55:03;;;;;;;19.08;7.82;;;16.00;81.70;;;;;;5090815;28;20083;-65
2023/09/29 06:57:29;;;;;;;14.20;6.70;;;16.10;81.70;;;;;;5089360;28;20154;-65
2023/09/29 06:59:55;;;;;;;19.15;6.97;;;16.10;81.70;;;;;;5091029;28;20126;-66
2023/09/29 07:02:20;;;;;;;17.77;7.13;;;16.10;81.70;;;;;;5089401;28;20052;-65
2023/09/29 07:04:47;;;;;;;16.55;6.35;;;16.20;81.90;;;;;;5091018;28;20058;-66
2023/09/29 07:07:13;;;;;;;18.30;7.18;;;16.20;81.90;;;;;;5090323;28;20070;-65
2023/09/29 07:09:39;;;;;;;22.23;6.95;;;16.20;81.90;;;;;;5081994;28;20048;-65
2023/09/29 07:12:06;;;;;;;21.70;6.38;;;16.30;81.90;;;;;;5087797;28;20112;-65
2023/09/29 07:14:32;;;;;;;18.35;7.00;;;16.40;81.70;;;;;;5070173;28;20083;-66
2023/09/29 07:16:58;;;;;;;18.98;6.75;;;16.40;81.80;;;;;;5070177;28;20052;-65
2023/09/29 07:19:23;;;;;;;18.35;6.63;;;16.40;81.90;;;;;;5068779;28;20055;-64
2023/09/29 07:21:49;;;;;;;15.43;6.95;;;16.50;81.70;;;;;;5078572;28;20093;-65
2023/09/29 07:24:16;;;;;;;18.90;7.05;;;16.50;81.70;;;;;;5089726;28;20566;-65
2023/09/29 07:26:42;;;;;;;14.35;6.60;;;16.50;81.60;;;;;;5089913;28;20044;-66
2023/09/29 07:29:08;;;;;;;17.77;6.75;;;16.60;81.70;;;;;;5090054;28;20079;-64
2023/09/29 07:31:38;;;;;;;16.10;6.93;;;16.60;81.50;;;;;;5090220;28;20072;-65
2023/09/29 07:34:04;;;;;;;15.87;6.60;;;16.70;81.40;;;;;;5087341;28;20545;-66
2023/09/29 07:36:33;;;;;;;16.60;6.70;;;16.70;81.40;;;;;;5068031;28;20120;-66
2023/09/29 07:38:59;;;;;;;16.33;6.63;;;16.80;81.40;;;;;;5080015;28;20048;-66
2023/09/29 07:41:25;;;;;;;14.25;6.40;;;16.80;81.30;;;;;;5081294;28;20070;-65
2023/09/29 07:43:51;;;;;;;14.90;6.38;;;16.80;81.30;;;;;;5079000;28;20565;-66
2023/09/29 07:46:17;;;;;;;14.70;6.15;;;16.80;81.20;;;;;;5081957;28;20056;-66
2023/09/29 07:48:42;;;;;;;15.20;6.57;;;16.80;81.20;;;;;;5089273;28;20052;-66
2023/09/29 07:51:08;;;;;;;13.65;5.93;;;16.90;81.20;;;;;;5089689;28;20054;-66
2023/09/29 07:53:34;;;;;;;16.85;6.07;;;16.90;81.10;;;;;;5089299;28;20043;-66
2023/09/29 07:56:00;;;;;;;12.88;6.15;;;16.90;81.00;;;;;;5089450;28;20385;-66
2023/09/29 07:58:25;;;;;;;12.77;5.60;;;17.00;81.20;;;;;;5089249;28;20080;-65
2023/09/29 08:00:51;;;;;;;12.15;6.00;;;17.00;81.20;;;;;;5089225;28;20515;-65
2023/09/29 08:03:16;;;;;;;11.27;5.40;;;17.20;81.10;;;;;;5088864;28;20043;-65
2023/09/29 08:05:42;;;;;;;13.75;5.68;;;17.20;80.90;;;;;;5087707;28;20071;-66
2023/09/29 08:08:08;;;;;;;11.63;5.05;;;17.20;80.80;;;;;;5083799;28;20048;-66
2023/09/29 08:10:33;;;;;;;12.00;5.47;;;17.30;80.90;;;;;;5081454;28;20090;-66
2023/09/29 08:12:59;;;;;;;10.68;5.40;;;17.40;81.10;;;;;;5079042;28;20049;-66
2023/09/29 08:15:25;;;;;;;11.00;5.28;;;17.40;80.70;;;;;;5068495;28;20094;-66
2023/09/29 08:17:52;;;;;;;10.35;5.00;;;17.50;80.70;;;;;;5068669;28;20044;-66
2023/09/29 08:20:19;;;;;;;12.00;5.35;;;17.60;80.50;;;;;;5079776;28;20565;-66
2023/09/29 08:22:45;;;;;;;15.05;5.70;;;17.60;80.40;;;;;;5073890;28;20409;-65
2023/09/29 08:25:11;;;;;;;15.25;5.03;;;17.80;80.30;;;;;;5078180;28;20056;-66
2023/09/29 08:27:38;;;;;;;11.05;4.85;;;17.80;80.10;;;;;;5086185;28;20052;-66
2023/09/29 08:30:04;;;;;;;11.95;5.18;;;18.00;80.30;;;;;;5089136;28;20408;-67
2023/09/29 08:32:30;;;;;;;13.05;4.88;;;18.00;80.00;;;;;;5088733;28;20061;-66
2023/09/29 08:34:56;;;;;;;13.95;4.88;;;18.10;79.90;;;;;;5087544;28;20083;-67
2023/09/29 08:37:22;;;;;;;12.88;5.20;;;18.10;79.60;;;;;;5088560;28;20079;-66
2023/09/29 08:39:49;;;;;;;9.38;4.65;;;18.20;79.70;;;;;;5098741;28;20122;-66
2023/09/29 08:42:37;;;;;;;9.88;4.72;;;18.20;79.50;;;;;;5087877;28;20454;-66
2023/09/29 08:45:29;;;;;;;9.45;4.80;;;18.30;79.40;;;;;;5088364;28;20048;-66
2023/09/29 08:47:58;;;;;;;12.13;4.55;;;18.40;79.40;;;;;;5067903;28;20088;-66
2023/09/29 08:50:27;;;;;;;14.27;5.10;;;18.50;79.40;;;;;;5067844;28;20413;-66
2023/09/29 08:52:54;;;;;;;8.73;4.30;;;18.60;79.30;;;;;;5068544;28;20109;-67
2023/09/29 08:55:21;;;;;;;8.98;4.40;;;18.60;79.10;;;;;;5068323;28;20086;-65
2023/09/29 08:57:47;;;;;;;10.05;4.20;;;18.70;79.00;;;;;;5068782;28;20044;-66
2023/09/29 09:00:13;;;;;;;10.27;4.55;;;18.70;79.00;;;;;;5066701;28;20099;-66
2023/09/29 09:02:43;;;;;;;11.23;4.47;;;18.80;78.90;;;;;;5067532;28;20482;-67
2023/09/29 09:05:14;;;;;;;11.25;4.25;;;18.90;78.90;;;;;;5068337;28;20049;-66
2023/09/29 09:07:41;;;;;;;10.60;3.85;;;18.90;78.70;;;;;;5067309;28;20044;-67
2023/09/29 09:10:07;;;;;;;8.80;4.28;;;19.00;78.50;;;;;;5080917;28;20512;-65
2023/09/29 09:12:35;;;;;;;10.13;4.03;;;19.00;78.40;;;;;;5082542;28;20493;-65
2023/09/29 09:15:05;;;;;;;10.68;4.22;;;19.10;78.60;;;;;;5087071;28;20487;-65
2023/09/29 09:17:32;;;;;;;12.50;4.13;;;19.20;78.50;;;;;;5087702;28;20086;-65
2023/09/29 09:19:58;;;;;;;8.77;3.97;;;19.30;78.50;;;;;;5068383;28;20045;-65
2023/09/29 09:22:27;;;;;;;7.93;4.22;;;19.30;78.20;;;;;;5071586;28;20522;-65
2023/09/29 09:25:00;;;;;;;10.57;3.65;;;19.40;78.30;;;;;;5072074;28;20040;-65
2023/09/29 09:27:35;;;;;;;8.98;4.25;;;19.40;78.40;;;;;;5072468;28;20082;-65
2023/09/29 09:30:01;;;;;;;11.32;4.15;;;19.40;78.30;;;;;;5072786;28;20048;-65
2023/09/29 09:32:27;;;;;;;12.75;4.70;;;19.50;78.20;;;;;;5075767;28;20048;-65
2023/09/29 09:34:53;;;;;;;9.15;4.65;;;19.50;78.10;;;;;;5092536;28;20136;-65
2023/09/29 09:37:26;;;;;;;12.35;4.55;;;19.50;78.00;;;;;;5092228;28;20454;-65
2023/09/29 09:39:55;;;;;;;9.13;3.92;;;19.50;78.10;;;;;;5092113;28;20052;-65
2023/09/29 09:42:26;;;;;;;11.20;4.18;;;19.50;78.20;;;;;;5091938;28;20074;-65
2023/09/29 09:44:58;;;;;;;9.17;4.10;;;19.50;78.20;;;;;;5091630;28;20515;-64
2023/09/29 09:47:27;;;;;;;9.25;4.20;;;19.50;78.10;;;;;;5073261;28;20301;-65
2023/09/29 09:49:56;;;;;;;9.43;4.68;;;19.60;78.00;;;;;;5071705;28;20234;-65
2023/09/29 09:52:30;;;;;;;8.70;3.90;;;19.60;77.70;;;;;;5071291;28;20498;-65
2023/09/29 09:54:58;;;;;;;8.55;4.15;;;19.60;77.60;;;;;;5071471;28;20052;-64
2023/09/29 09:57:34;;;;;;;8.73;4.03;;;19.60;77.70;;;;;;5072000;28;20053;-65
2023/09/29 10:00:07;;;;;;;9.80;4.55;;;19.70;77.90;;;;;;5070899;28;20044;-65
2023/09/29 10:02:43;;;;;;;10.55;4.28;;;19.70;77.90;;;;;;5071468;28;20056;-65
2023/09/29 10:05:22;;;;;;;10.27;4.45;;;19.70;77.80;;;;;;5076382;28;20650;-65
2023/09/29 10:07:55;;;;;;;10.80;4.50;;;19.70;77.80;;;;;;5078891;28;20053;-65
2023/09/29 10:10:34;;;;;;;12.23;4.55;;;19.70;77.90;;;;;;5076342;28;20049;-65
2023/09/29 10:13:05;;;;;;;8.10;4.70;;;19.70;77.90;;;;;;5077942;28;20098;-65
2023/09/29 10:15:32;;;;;;;10.60;4.55;;;19.80;77.70;;;;;;5070938;28;20086;-65
2023/09/29 10:18:13;;;;;;;12.35;5.03;;;19.90;77.80;;;;;;5071148;28;20405;-65
2023/09/29 10:20:39;;;;;;;;;;;19.90;77.70;;;;;;5071188;28;20045;-65
2023/09/29 10:23:07;;;;;;;11.73;4.82;;;19.90;77.20;;;;;;5091022;28;19927;-65
2023/09/29 10:25:40;;;;;;;9.63;4.93;;;19.90;77.60;;;;;;5091204;28;20048;-66
2023/09/29 10:28:08;;;;;;;9.88;4.70;;;19.90;77.70;;;;;;5082467;28;20052;-65
2023/09/29 10:30:35;;;;;;;11.73;4.82;;;19.90;77.80;;;;;;5074646;28;20051;-65
2023/09/29 10:33:06;;;;;;;10.43;4.72;;;19.90;77.80;;;;;;5074893;28;20400;-64
2023/09/29 10:35:33;;;;;;;11.32;4.25;;;19.90;77.80;;;;;;5076742;28;20052;-65
2023/09/29 10:38:06;;;;;;;11.60;4.53;;;19.90;77.90;;;;;;5071043;28;20090;-64
2023/09/29 10:40:33;;;;;;;11.90;4.95;;;19.90;78.00;;;;;;5075427;28;20059;-65
2023/09/29 10:43:02;;;;;;;10.45;4.50;;;19.80;78.00;;;;;;5090311;28;20717;-66
2023/09/29 10:45:31;;;;;;;14.23;5.03;;;19.80;78.00;;;;;;5090629;28;20095;-65
2023/09/29 10:48:01;;;;;;;8.80;4.18;;;19.70;78.00;;;;;;5090970;28;20115;-65
2023/09/29 10:50:28;;;;;;;10.73;4.38;;;19.70;78.20;;;;;;5072683;28;20515;-65
2023/09/29 10:52:55;;;;;;;9.55;4.30;;;19.70;78.20;;;;;;5089843;28;20044;-67
2023/09/29 10:55:21;;;;;;;11.65;5.60;;;19.60;78.80;;;;;;5091809;28;20435;-65
2023/09/29 10:57:47;;;;;;;11.05;5.50;;;19.50;79.60;;;;;;5088989;28;20044;-65
2023/09/29 11:00:14;;;;;;;11.82;4.90;;;19.30;80.30;;;;;;5090402;28;20093;-65
2023/09/29 11:02:40;;;;;;;14.23;5.72;;;19.20;80.80;;;;;;5090764;28;20055;-65
2023/09/29 11:05:09;;;;;;;10.13;5.50;;;19.10;81.10;;;;;;5089513;28;20039;-66
2023/09/29 11:07:50;;;;;;;11.75;5.55;;;19.00;81.70;;;;;;5088649;28;20044;-65
2023/09/29 11:10:17;;;;;;;13.77;5.50;;;19.00;82.10;;;;;;5083139;28;20079;-65
2023/09/29 11:12:46;;;;;;;17.77;5.85;;;19.00;82.20;;;;;;5084460;28;20058;-66
2023/09/29 11:15:13;;;;;;;13.40;5.90;;;18.90;82.10;;;;;;5090384;28;20078;-65
2023/09/29 11:17:46;;;;;;;9.93;5.72;;;18.90;82.30;;;;;;5089478;28;20563;-66
2023/09/29 11:20:20;;;;;;;10.27;5.63;;;18.90;82.60;;;;;;5084453;28;20086;-65
2023/09/29 11:23:06;;;;;;;13.20;6.13;;;18.90;82.60;;;;;;5080428;28;20119;-65
2023/09/29 11:25:31;;;;;;;12.40;6.18;;;18.90;82.70;;;;;;5083371;28;20580;-65
2023/09/29 11:27:57;;;;;;;12.63;6.00;;;18.90;82.60;;;;;;5093731;28;20122;-64
2023/09/29 11:30:24;;;;;;;10.35;5.55;;;18.80;82.40;;;;;;5070397;28;20045;-66
2023/09/29 11:32:53;;;;;;;13.38;6.38;;;18.90;82.60;;;;;;5087010;28;20475;-65
2023/09/29 11:35:21;;;;;;;9.82;5.85;;;18.90;82.60;;;;;;5080168;28;20055;-63
2023/09/29 11:37:47;;;;;;;11.60;6.40;;;18.90;82.50;;;;;;5070978;28;20053;-65
2023/09/29 11:40:13;;;;;;;13.60;6.30;;;18.90;82.70;;;;;;5079930;28;20081;-66
2023/09/29 11:42:40;;;;;;;12.85;7.03;;;18.90;82.60;;;;;;5076727;28;20083;-65
2023/09/29 11:45:10;;;;;;;12.98;6.82;;;18.90;82.80;;;;;;5071030;28;20051;-64
2023/09/29 11:47:42;;;;;;;14.02;7.03;;;18.90;82.80;;;;;;5088858;28;20056;-65
2023/09/29 11:50:11;;;;;;;13.00;7.28;;;18.90;82.80;;;;;;5088411;28;20093;-65
2023/09/29 11:52:43;;;;;;;13.10;6.68;;;19.00;83.00;;;;;;5077919;28;20275;-66
2023/09/29 11:55:11;;;;;;;8.20;3.40;;;19.00;82.70;;;;;;5069600;28;20043;-64
2023/09/29 11:57:40;;;;;;;4.43;1.70;;;18.90;81.70;;;;;;5085415;28;20090;-66
2023/09/29 12:00:10;;;;;;;4.60;1.17;;;18.70;81.40;;;;;;5089814;28;20048;-65
2023/09/29 12:02:37;;;;;;;4.38;1.05;;;18.60;81.40;;;;;;5089293;28;20051;-64
2023/09/29 12:05:04;;;;;;;2.45;0.60;;;18.40;81.30;;;;;;5078113;28;20050;-64
2023/09/29 12:07:31;;;;;;;2.40;0.65;;;18.30;81.50;;;;;;5087214;28;20570;-65
2023/09/29 12:09:57;;;;;;;2.95;0.65;;;18.10;81.40;;;;;;5075248;28;20102;-64
2023/09/29 12:12:22;;;;;;;4.03;0.80;;;18.00;81.20;;;;;;5073666;28;20036;-65
2023/09/29 12:14:48;;;;;;;3.72;0.70;;;17.90;81.40;;;;;;5082323;28;20048;-64
2023/09/29 12:17:14;;;;;;;2.38;0.52;;;17.80;81.50;;;;;;5086073;28;20151;-65
2023/09/29 12:19:39;;;;;;;2.85;1.08;;;17.60;81.60;;;;;;5084286;28;20055;-65
2023/09/29 12:22:05;;;;;;;5.90;0.90;;;17.50;81.90;;;;;;5076192;28;20041;-65
2023/09/29 12:24:31;;;;;;;6.07;0.90;;;17.40;82.00;;;;;;5084882;28;20048;-64
2023/09/29 12:26:57;;;;;;;2.85;0.90;;;17.40;82.30;;;;;;5081376;28;20530;-64
2023/09/29 12:29:24;;;;;;;5.75;1.13;;;17.30;82.40;;;;;;5075222;28;20557;-64
2023/09/29 12:31:49;;;;;;;7.68;1.60;;;17.20;82.80;;;;;;5088881;28;20044;-65
2023/09/29 12:34:17;;;;;;;9.48;1.80;;;17.00;83.00;;;;;;5085340;28;20048;-65
2023/09/29 12:36:44;;;;;;;10.50;1.80;;;17.00;83.20;;;;;;5077641;28;20146;-64
2023/09/29 12:39:10;;;;;;;11.88;1.90;;;16.90;83.40;;;;;;5088830;28;20063;-65